ENSO/SRP METAR and TAF weather

Enter ICAO airport designator
Station Type Date Time Source
ENSO METAR 2018/10/19 17:50 UTC NOAA

ENSO 191750Z 19006KT 9999 -SHRA FEW008 SCT019TCU BKN040 09/08 Q1019


Station Type Date Time Source
ENSO Decoded METAR 2018/10/19 17:50 UTC NOAA

Stord / Soerstokken, Norway (ENSO) 59-48N 005-21E
Oct 19, 2018 - 01:50 PM EDT / 2018.10.19 1750 UTC
Wind: from the S (190 degrees) at 7 MPH (6 KT):0
Visibility: greater than 7 mile(s):0
Sky conditions: mostly cloudy
Weather: light rain showers; Towering cumulus clouds observed
Temperature: 48 F (9 C)
Dew Point: 46 F (8 C)
Relative Humidity: 93%
Pressure (altimeter): 30.09 in. Hg (1019 hPa)
ob: ENSO 191750Z 19006KT 9999 -SHRA FEW008 SCT019TCU BKN040 09/08 Q1019
cycle: 18

Station Type Date Time Source
ENSO TAF UTC NOAA

Error!


Example: see airport list